• Join FlightAware (Why Join?)
  • Login
  • US Flag 
12:45AM EDT


 

Airport Tracker/Info


-or-


 

Live Flight TrackerFlight Track Log ✈ VH-AWE ✈ 16-Aug-2013 ✈ YHBA / HVB - YTWB

Flight Track Log - Related Links

Times and Time Zones

All times are in EDT time to prevent confusion due to time zone crossing. See the VH-AWE flight status page for this flight to view local times or setup timezone preferences in your user account.

Time Position Orientation Groundspeed Altitude Reporting Facility
EDT Latitude Longitude Course Direction KTS MPH feet Rate Location/Type
12:19AM -25.5768 152.6904 201° Southwest  Level Aus ATC (Calculated)
12:19AM -25.5768 152.6904 201° Southwest 1,500 Level Aus ATC (Calculated)
12:21AM -25.6519 152.6614 199° South  Level Estimated
12:21AM -25.6383 152.6665 204° Southwest  Level Aus ATC (Calculated)
12:22AM -25.6599 152.6583 199° South  Level Estimated
12:22AM -25.6579 152.6566 199° South 112 129 5,400  Level Aus ATC (RADAR)
12:23AM -25.6750 152.6505 198° South 97 112 5,900 720 Climbing Aus ATC (RADAR)
12:24AM -25.6973 152.6417 200° South 102 117 6,500 780 Climbing Aus ATC (RADAR)
12:25AM -25.7193 152.6335 199° South 100 115 7,200 720 Climbing Aus ATC (RADAR)
12:26AM -25.7535 152.6199 200° South 103 119 8,000 420 Climbing Aus ATC (RADAR)
12:27AM -25.7797 152.6098 199° South 121 139 8,100 60 Climbing Aus ATC (RADAR)
12:27AM -25.8086 152.5991 198° South 143 165 8,100  Level Aus ATC (RADAR)
12:28AM -25.8328 152.5900 199° South 154 177 8,100  Level Aus ATC (RADAR)
12:29AM -25.8639 152.5780 199° South 155 178 8,100  Level Aus ATC (RADAR)
12:29AM -25.8840 152.5706 198° South 153 176 8,100  Level Aus ATC (RADAR)
12:30AM -25.9087 152.5598 201° Southwest 159 183 8,100  Level Aus ATC (RADAR)
12:31AM -25.9501 152.5440 199° South 158 182 8,100  Level Aus ATC (RADAR)
12:32AM -25.9935 152.5277 199° South 154 177 8,100  Level Aus ATC (RADAR)
12:32AM -26.0178 152.5182 199° South 161 185 8,100  Level Aus ATC (RADAR)
12:33AM -26.0438 152.5061 203° Southwest 171 197 8,100  Level Aus ATC (RADAR)
12:34AM -26.0775 152.4949 197° South 159 183 8,100  Level Aus ATC (RADAR)
12:35AM -26.1198 152.4768 201° Southwest 167 192 8,100  Level Aus ATC (RADAR)
12:36AM -26.1790 152.4543 199° South 160 184 8,100  Level Aus ATC (RADAR)
12:37AM -26.2244 152.4361 200° South 161 185 8,100  Level Aus ATC (RADAR)
12:38AM -26.2485 152.4267 199° South 159 183 8,100  Level Aus ATC (RADAR)
12:39AM -26.2764 152.4158 199° South 159 183 8,100  Level Aus ATC (RADAR)
12:39AM -26.3077 152.4037 199° South 158 182 8,100  Level Aus ATC (RADAR)
12:40AM -26.3288 152.3951 200° South 162 186 8,100  Level Aus ATC (RADAR)
12:41AM -26.3880 152.3723 199° South 159 183 8,100  Level Aus ATC (RADAR)
12:42AM -26.4091 152.3639 200° South 162 186 8,100  Level Aus ATC (RADAR)
12:42AM -26.4340 152.3546 198° South 162 186 8,100  Level Aus ATC (RADAR)
12:43AM -26.4622 152.3432 200° South 162 186 8,100  Level Aus ATC (RADAR)
12:44AM -26.4871 152.3332 200° South 162 186 8,100  Level Aus ATC (RADAR)
12:44AM -26.5183 152.3206 200° South 159 183 8,100  Level Aus ATC (RADAR)
12:46AM -26.5921 152.2915 199° South 159 183 8,100  Level Aus ATC (RADAR)
12:47AM -26.6200 152.2801 200° South 160 184 8,100  Level Aus ATC (RADAR)
12:48AM -26.6585 152.2650 199° South 160 184 8,100  Level Aus ATC (RADAR)
12:48AM -26.6830 152.2554 199° South 159 183 8,100  Level Aus ATC (RADAR)
12:49AM -26.7073 152.2457 200° South 159 183 8,100  Level Aus ATC (RADAR)
12:50AM -26.7424 152.2320 199° South 159 183 8,100  Level Aus ATC (RADAR)
12:51AM -26.8101 152.2052 200° South 164 189 8,100  Level Aus ATC (RADAR)
12:52AM -26.8561 152.1866 200° South 162 186 8,100  Level Aus ATC (RADAR)
12:53AM -26.8813 152.1766 200° South 164 189 8,100  Level Aus ATC (RADAR)
12:54AM -26.9095 152.1653 200° South 162 186 8,100  Level Aus ATC (RADAR)
12:54AM -26.9412 152.1526 200° South 159 183 8,100  Level Aus ATC (RADAR)
12:56AM -27.0011 152.1288 199° South 160 184 8,100  Level Aus ATC (RADAR)
12:56AM -27.0257 152.1189 200° South 158 182 8,100  Level Aus ATC (RADAR)
12:57AM -27.0612 152.1050 199° South 162 186 8,100 -300 Level Aus ATC (RADAR)
12:58AM -27.0973 152.0902 200° South 168 193 7,600 -600 Descending Aus ATC (RADAR)
12:59AM -27.1261 152.0786 200° South 184 212 7,300 -600 Descending Aus ATC (RADAR)
12:59AM -27.1663 152.0626 200° South 185 213 6,800 -660 Descending Aus ATC (RADAR)
01:01AM -27.2386 152.0332 200° South 186 214 5,800 -660 Descending Aus ATC (RADAR)
01:02AM -27.2830 152.0156 199° South 185 213 5,300 -660 Descending Aus ATC (RADAR)
01:02AM -27.3117 152.0044 199° South 187 215 4,900 -660 Descending Aus ATC (RADAR)
01:03AM -27.3437 151.9911 200° South 184 212 4,500 -600 Descending Aus ATC (RADAR)
01:04AM -27.3760 151.9787 199° South 184 212 4,100 -600 Descending Aus ATC (RADAR)
01:04AM -27.4116 151.9645 199° South 181 208 3,700 -420 Descending Aus ATC (RADAR)
01:06AM -27.4684 151.9312 207° Southwest 163 188 3,200 -240 Descending Aus ATC (RADAR)
01:07AM -27.4983 151.9051 218° Southwest 145 167 3,200 -360 Level Aus ATC (RADAR)
01:07AM -27.5169 151.8917 213° Southwest 123 142 2,700 -600 Descending Aus ATC (RADAR)
01:08AM -27.5343 151.8936 175° South 118 136 2,500 -480 Descending Aus ATC (RADAR)
01:09AM -27.5389 151.9103 107° East 89 102 2,200 -540 Descending Aus ATC (RADAR)